Flight Track Log - Related Links

Times and Time Zones

All times are in EST time to prevent confusion due to time zone crossing. See the UAL4563 flight status page for this flight to view local times or setup timezone preferences in your user account.

Time Position Orientation Groundspeed Altitude Reporting Facility
EST Latitude Longitude Course Direction KTS MPH feet Rate Location/Type
Thu 07:25:28 PM 41.3903 -81.8836 255° West 165 190 1,900  Level Cleveland Center
Thu 07:25:46 PM 41.3864 -81.9025 255° West 171 197 2,500 2,093 Climbing Cleveland Center
Thu 07:26:11 PM 41.3875 -81.9292 273° West 190 219 3,400 2,207 Climbing Cleveland Center
Thu 07:27:13 PM 41.4364 -81.9639 332° Northwest 240 276 5,700 2,565 Climbing Cleveland Center
Thu 07:28:15 PM 41.4983 -81.8917 41° Northeast 287 330 8,700 2,516 Climbing Cleveland Center
Thu 07:29:17 PM 41.5592 -81.8075 46° Northeast 306 352 10,900 1,597 Climbing Cleveland Center
Thu 07:30:19 PM 41.6292 -81.7097 46° Northeast 354 407 12,000 1,210 Climbing Cleveland Center
Thu 07:31:21 PM 41.7083 -81.5997 46° Northeast 396 456 13,400 1,659 Climbing Cleveland Center
Thu 07:32:22 PM 41.7894 -81.4878 46° Northeast 410 472 15,400 1,854 Climbing Cleveland Center
Thu 07:33:24 PM 41.8500 -81.3553 58° Northeast 418 481 17,200 1,403 Climbing Cleveland Center
Thu 07:34:26 PM 41.8733 -81.1989 79° East 424 488 18,300 1,016 Climbing Cleveland Center
Thu 07:35:28 PM 41.8983 -81.0322 79° East 446 513 19,300 1,113 Climbing Cleveland Center
Thu 07:36:30 PM 41.9244 -80.8564 79° East 469 540 20,600 1,500 Climbing Cleveland Center
Thu 07:37:32 PM 41.9561 -80.6514 78° East 477 549 22,400 1,597 Climbing Cleveland Center
Thu 07:38:34 PM 41.9819 -80.4742 79° East 479 551 23,900 1,452 Climbing Cleveland Center
Thu 07:39:36 PM 42.0075 -80.2964 79° East 478 550 25,400 1,366 Climbing Cleveland Center
Thu 07:40:37 PM 42.0322 -80.1192 79° East 479 551 26,700 1,268 Climbing Cleveland Center
Thu 07:41:39 PM 42.0592 -79.9361 79° East 482 555 28,000 1,258 Climbing Cleveland Center
Thu 07:42:41 PM 42.0833 -79.7594 79° East 482 555 29,300 1,258 Climbing Cleveland Center
Thu 07:43:43 PM 42.1075 -79.5831 79° East 481 554 30,600 823 Climbing Cleveland Center
Thu 07:44:45 PM 42.1314 -79.4050 80° East 484 557 31,000 194 Climbing Cleveland Center
Thu 07:45:47 PM 42.1572 -79.2125 80° East 517 595 31,000  Level Cleveland Center
Thu 07:46:48 PM 42.1889 -78.9756 80° East 533 613 31,000  Level Cleveland Center
Thu 07:47:50 PM 42.2150 -78.7808 80° East 520 598 31,000  Level Cleveland Center
Thu 07:48:52 PM 42.2389 -78.5881 80° East 522 601 31,000  Level Cleveland Center
Thu 07:49:54 PM 42.2636 -78.3944 80° East 526 605 31,000 339 Level Cleveland Center
Thu 07:50:56 PM 42.2886 -78.1997 80° East 528 608 31,700 823 Climbing Cleveland Center
Thu 07:51:58 PM 42.3108 -78.0136 81° East 510 587 32,700 634 Climbing Cleveland Center
Thu 07:52:59 PM 42.3378 -77.7933 81° East 502 578 33,000 146 Climbing Cleveland Center
Thu 07:54:01 PM 42.3592 -77.6117 81° East 499 574 33,000  Level Cleveland Center
Thu 07:55:03 PM 42.3817 -77.4267 81° East 506 582 33,000  Level Cleveland Center
Thu 07:56:05 PM 42.4033 -77.2358 81° East 517 595 33,000  Level Cleveland Center
Thu 07:57:07 PM 42.4242 -77.0447 82° East 518 596 33,000  Level Cleveland Center
Thu 07:57:57 PM 42.4461 -76.8589 81° East 505 581 33,000  Level Cleveland Center
Thu 07:58:58 PM 42.5147 -76.7175 57° Northeast 454 522 33,000  Level Cleveland Center
Thu 08:00:00 PM 42.6064 -76.7456 347° North 366 421 33,000  Level Cleveland Center
Thu 08:01:04 PM 42.5881 -76.8581 258° West 318 366 33,000 48 Level Boston Center
Thu 08:02:04 PM 42.5689 -76.9764 258° West 323 372 33,100 49 Climbing Cleveland Center
Thu 08:03:06 PM 42.5394 -77.1050 253° West 350 403 33,100 -339 Level Cleveland Center
Thu 08:04:08 PM 42.5025 -77.2642 253° West 365 420 32,400 -528 Descending Cleveland Center
Thu 08:05:11 PM 42.4708 -77.3994 252° West 373 429 32,000 -192 Descending Cleveland Center
Thu 08:06:13 PM 42.4411 -77.5272 253° West 371 427 32,000  Level Cleveland Center
Thu 08:07:15 PM 42.4075 -77.6678 252° West 370 426 32,000  Level Cleveland Center
Thu 08:08:17 PM 42.3767 -77.8014 253° West 370 426 32,000  Level Cleveland Center
Thu 08:09:19 PM 42.3453 -77.9336 252° West 369 425 32,000  Level Cleveland Center
Thu 08:10:21 PM 42.3136 -78.0650 252° West 367 422 32,000  Level Cleveland Center
Thu 08:11:23 PM 42.2825 -78.1917 252° West 359 413 32,000  Level Cleveland Center
Thu 08:12:25 PM 42.2461 -78.3411 252° West 352 405 32,000  Level Cleveland Center
Thu 08:13:27 PM 42.2153 -78.4667 252° West 352 405 32,000  Level Cleveland Center
Thu 08:14:29 PM 42.1833 -78.5947 251° West 358 412 32,000  Level Cleveland Center
Thu 08:15:31 PM 42.1503 -78.7292 252° West 360 414 32,000  Level Cleveland Center
Thu 08:16:33 PM 42.1219 -78.8497 252° West 339 390 32,000 -484 Level Cleveland Center
Thu 08:17:35 PM 42.0942 -78.9578 251° West 312 359 31,000 -968 Descending Cleveland Center
Thu 08:18:37 PM 42.0675 -79.0656 252° West 307 353 30,000 -1,113 Descending Cleveland Center
Thu 08:19:39 PM 42.0339 -79.1969 251° West 311 358 28,700 -968 Descending Cleveland Center
Thu 08:20:41 PM 42.0064 -79.3064 251° West 312 359 28,000 -339 Descending Cleveland Center
Thu 08:21:43 PM 41.9764 -79.4242 251° West 331 381 28,000  Level Cleveland Center
Thu 08:22:45 PM 41.9461 -79.5428 251° West 338 389 28,000  Level Cleveland Center
Thu 08:23:47 PM 41.9119 -79.6744 251° West 344 396 28,000  Level Cleveland Center
Thu 08:24:49 PM 41.8800 -79.7936 250° West 338 389 28,000 -532 Level Cleveland Center
Thu 08:25:51 PM 41.8514 -79.9086 252° West 326 375 26,900 -1,306 Descending Cleveland Center
Thu 08:26:53 PM 41.8228 -80.0192 251° West 314 361 25,300 -1,645 Descending Cleveland Center
Thu 08:27:55 PM 41.7861 -80.1569 250° West 334 384 23,500 -1,597 Descending Cleveland Center
Thu 08:28:57 PM 41.7569 -80.2694 251° West 321 369 22,000 -1,500 Descending Cleveland Center
Thu 08:29:59 PM 41.7297 -80.3758 251° West 303 349 20,400 -1,500 Descending Cleveland Center
Thu 08:31:01 PM 41.7011 -80.4803 250° West 300 345 18,900 -1,403 Descending Cleveland Center
Thu 08:32:03 PM 41.6717 -80.5894 250° West 309 356 17,500 -1,452 Descending Cleveland Center
Thu 08:33:05 PM 41.6436 -80.6942 250° West 301 346 15,900 -1,500 Descending Cleveland Center
Thu 08:34:07 PM 41.6131 -80.8033 250° West 310 357 14,400 -1,500 Descending Cleveland Center
Thu 08:35:09 PM 41.5844 -80.9111 250° West 307 353 12,800 -1,636 Descending Cleveland Center
Thu 08:35:13 PM 41.5792 -80.9333 252° West 309 356 12,600 -1,909 Descending Cleveland Center
Thu 08:35:31 PM 41.5700 -80.9683 251° West 308 354 12,100 -1,655 Descending Cleveland Center
Thu 08:36:11 PM 41.5492 -81.0392 249° West 311 358 11,000 -1,475 Descending Cleveland Center
Thu 08:36:32 PM 41.5397 -81.0756 251° West 311 358 10,600 -984 Descending Cleveland Center
Thu 08:37:12 PM 41.5325 -81.1550 263° West 319 367 10,000 -537 Descending Cleveland Center
Thu 08:37:39 PM 41.5325 -81.2083 270° West 317 365 10,000  Level Cleveland Center
Thu 08:38:14 PM 41.5311 -81.2678 268° West 309 356 10,000 -300 Level Cleveland Center
Thu 08:38:39 PM 41.5303 -81.3086 268° West 248 285 9,700 -1,065 Descending Cleveland Center
Thu 08:39:16 PM 41.5292 -81.3567 268° West 253 291 8,900 -1,377 Descending Cleveland Center
Thu 08:39:40 PM 41.5286 -81.3978 269° West 234 269 8,300 -1,258 Descending Cleveland Center
Thu 08:40:18 PM 41.5264 -81.4450 266° West 237 273 7,600 -1,200 Descending Cleveland Center
Thu 08:40:40 PM 41.5339 -81.4794 286° West 225 259 7,100 -968 Descending Cleveland Center
Thu 08:41:20 PM 41.5519 -81.5119 307° West 216 249 6,600 -787 Descending Cleveland Center
Thu 08:41:41 PM 41.5669 -81.5350 311° West 179 206 6,300 -581 Descending Cleveland Center
Thu 08:42:22 PM 41.5636 -81.5697 263° West 180 207 6,000 -590 Descending Cleveland Center
Thu 08:42:42 PM 41.5592 -81.5981 258° West 169 194 5,700 -1,065 Descending Cleveland Center
Thu 08:43:24 PM 41.5489 -81.6406 252° West 171 197 4,900 -1,075 Descending Cleveland Center
Thu 08:43:49 PM 41.5344 -81.6611 227° Southwest 182 209 4,500 -968 Descending Cleveland Center
Thu 08:44:26 PM 41.5139 -81.6914 228° Southwest 182 209 3,900 -1,000 Descending Cleveland Center
Thu 08:44:49 PM 41.5003 -81.7144 232° Southwest 188 216 3,500 -968 Descending Cleveland Center
Thu 08:45:28 PM 41.4800 -81.7433 227° Southwest 184 212 2,900 -982 Descending Cleveland Center
Thu 08:45:44 PM 41.4708 -81.7600 234° Southwest 181 208 2,600 -871 Descending Cleveland Center
Thu 08:46:30 PM 41.4550 -81.7861 231° Southwest 157 181 2,000 -800 Descending Cleveland Center
Thu 08:46:44 PM 41.4464 -81.7978 225° Southwest 122 140 1,800 -677 Descending Cleveland Center
Thu 08:47:32 PM 41.4311 -81.8231 231° Southwest 138 159 1,300 -764 Descending Cleveland Center
Thu 08:47:39 PM 41.4242 -81.8333 228° Southwest 134 154 1,100 -492 Descending Cleveland Center
Thu 08:48:33 PM 41.4081 -81.8583 229° Southwest 134 154 800 -333 Descending Cleveland Center
Thu 08:50:00 PM 41.4094 -81.8547 73° East  Level Estimated

Login

Don't have an account? Register now (free) for customized features, flight alerts, and more!